Time;durP1;ratioP1;P1;durP2;ratioP2;P2;SDS_P1;SDS_P2;PMS_P1;PMS_P2;Temp;Humidity;BMP_temperature;BMP_pressure;BME280_temperature;BME280_humidity;BME280_pressure;Samples;Min_cycle;Max_cycle;Signal;HPM_P1;HPM_P2
2022/03/24 07:58:52;;;;;;;53.38;33.53;;;;;;;9.00;52.37;102827.47;5279558;28;20394;-65
2022/03/24 08:01:31;;;;;;;53.88;36.85;;;;;;;9.09;52.22;102829.72;5280247;28;20372;-66
2022/03/24 08:04:06;;;;;;;45.08;33.75;;;;;;;9.18;52.32;102832.16;5280446;28;20028;-66
2022/03/24 08:06:39;;;;;;;47.92;35.95;;;;;;;9.28;52.00;102835.22;5278897;28;20099;-66
2022/03/24 08:09:10;;;;;;;48.15;35.17;;;;;;;9.29;50.90;102829.47;5279013;28;20033;-66
2022/03/24 08:11:42;;;;;;;49.10;35.35;;;;;;;9.43;50.52;102832.06;5279326;28;20379;-66
2022/03/24 08:14:13;;;;;;;44.08;32.40;;;;;;;9.70;52.72;102832.53;5262113;28;20017;-66
2022/03/24 08:16:45;;;;;;;48.53;33.45;;;;;;;9.81;52.38;102828.94;5276210;28;20083;-69
2022/03/24 08:19:17;;;;;;;35.97;28.42;;;;;;;10.03;54.44;102834.81;5278990;28;20059;-67
2022/03/24 08:21:48;;;;;;;41.28;31.77;;;;;;;10.10;50.93;102843.88;5273953;28;20449;-67
2022/03/24 08:24:19;;;;;;;43.63;32.60;;;;;;;10.21;48.91;102839.41;5258250;28;20101;-67
2022/03/24 08:26:50;;;;;;;42.50;33.42;;;;;;;10.32;47.23;102835.84;5259615;28;20120;-67
2022/03/24 08:29:22;;;;;;;43.33;33.22;;;;;;;10.39;46.18;102841.28;5261650;28;20557;-67
2022/03/24 08:31:53;;;;;;;45.08;33.13;;;;;;;10.53;44.93;102842.75;5266575;28;20029;-68
2022/03/24 08:34:24;;;;;;;38.33;30.30;;;;;;;10.61;44.84;102838.78;5278521;28;20033;-67
2022/03/24 08:36:55;;;;;;;46.72;33.25;;;;;;;10.66;43.83;102855.53;5258916;28;20529;-68
2022/03/24 08:39:27;;;;;;;47.67;35.45;;;;;;;10.74;44.19;102846.84;5258449;28;20159;-68
2022/03/24 08:41:58;;;;;;;40.33;32.05;;;;;;;10.85;44.04;102839.59;5258208;28;20033;-68
2022/03/24 08:44:29;;;;;;;42.63;32.75;;;;;;;10.94;44.40;102843.69;5262800;28;20058;-67
2022/03/24 08:47:01;;;;;;;44.75;33.80;;;;;;;11.11;43.36;102852.09;5271710;28;20029;-69
2022/03/24 08:49:33;;;;;;;41.72;32.03;;;;;;;11.25;42.50;102853.53;5268043;28;20044;-67
2022/03/24 08:52:05;;;;;;;39.60;33.50;;;;;;;11.35;42.75;102850.13;5258029;28;20025;-68
2022/03/24 08:54:36;;;;;;;41.30;31.85;;;;;;;11.50;41.39;102849.56;5257429;28;20087;-67
2022/03/24 08:57:08;;;;;;;36.40;31.35;;;;;;;11.68;41.43;102848.53;5270013;28;20522;-68
2022/03/24 08:59:39;;;;;;;39.97;32.08;;;;;;;11.78;41.23;102847.88;5265261;28;20428;-69
2022/03/24 09:02:11;;;;;;;36.90;30.75;;;;;;;11.90;39.60;102845.94;5257425;28;20100;-70
2022/03/24 09:04:45;;;;;;;37.42;29.52;;;;;;;11.99;39.08;102852.78;5259936;28;20060;-73
2022/03/24 09:07:16;;;;;;;36.22;30.10;;;;;;;12.10;39.58;102851.84;5267742;28;20025;-68
2022/03/24 09:09:47;;;;;;;39.60;30.55;;;;;;;12.16;39.18;102855.56;5245545;28;20056;-68
2022/03/24 09:12:19;;;;;;;37.72;29.35;;;;;;;12.33;39.04;102856.41;5247545;28;20044;-68
2022/03/24 09:14:50;;;;;;;37.30;29.33;;;;;;;12.43;37.77;102861.31;5257695;28;20497;-68
2022/03/24 09:17:22;;;;;;;41.90;29.42;;;;;;;12.53;37.74;102861.47;5261955;28;20392;-67
2022/03/24 09:19:55;;;;;;;33.05;27.20;;;;;;;12.69;37.46;102861.72;5243894;28;20512;-68
2022/03/24 09:22:27;;;;;;;33.50;26.73;;;;;;;12.75;37.08;102855.94;5263060;28;20033;-67
2022/03/24 09:24:58;;;;;;;32.53;26.85;;;;;;;12.80;35.87;102860.75;5258571;28;20044;-68
2022/03/24 09:27:29;;;;;;;32.58;25.50;;;;;;;12.95;35.26;102863.75;5267424;28;20012;-68
2022/03/24 09:30:04;;;;;;;29.58;25.38;;;;;;;13.19;34.90;102863.53;5248325;28;20057;-67
2022/03/24 09:32:42;;;;;;;33.05;26.13;;;;;;;13.20;35.02;102866.06;5247140;28;20029;-68
2022/03/24 09:35:17;;;;;;;33.35;25.33;;;;;;;13.33;34.40;102861.25;5249722;28;20032;-69
2022/03/24 09:37:48;;;;;;;30.38;25.58;;;;;;;13.40;33.70;102859.13;5256349;28;20025;-68
2022/03/24 09:40:20;;;;;;;28.60;25.50;;;;;;;13.36;35.03;102864.34;5243665;28;20034;-68
2022/03/24 09:42:51;;;;;;;30.80;23.45;;;;;;;13.61;32.68;102860.19;5243367;28;20495;-68
2022/03/24 09:45:24;;;;;;;23.92;20.77;;;;;;;13.75;31.15;102867.03;5253871;28;20526;-68
2022/03/24 09:47:56;;;;;;;28.27;24.98;;;;;;;13.74;32.14;102865.34;5264059;28;20031;-68
2022/03/24 09:50:28;;;;;;;53.95;43.65;;;;;;;13.81;32.31;102865.16;5263519;28;20515;-68
2022/03/24 09:53:01;;;;;;;28.70;23.35;;;;;;;13.90;32.54;102867.19;5254615;28;20040;-68
2022/03/24 09:55:36;;;;;;;27.75;23.45;;;;;;;14.05;31.72;102862.88;5246172;28;20026;-69
2022/03/24 09:58:07;;;;;;;28.90;23.98;;;;;;;14.03;32.36;102862.28;5242233;28;20049;-68
2022/03/24 10:00:39;;;;;;;27.77;23.58;;;;;;;14.08;33.42;102860.38;5242943;28;20354;-68
2022/03/24 10:03:17;;;;;;;27.20;24.20;;;;;;;14.26;32.24;102859.16;5243046;28;20068;-69
2022/03/24 10:06:02;;;;;;;25.38;22.45;;;;;;;14.38;31.49;102864.56;5242354;28;20037;-69
2022/03/24 10:08:36;;;;;;;26.02;23.05;;;;;;;14.36;31.30;102864.81;5243543;28;20091;-68
2022/03/24 10:11:09;;;;;;;29.10;22.63;;;;;;;14.46;30.96;102861.28;5248165;28;20043;-68
2022/03/24 10:13:54;;;;;;;25.50;20.48;;;;;;;14.54;29.38;102862.75;5244459;28;20042;-68
2022/03/24 10:16:38;;;;;;;27.60;22.05;;;;;;;14.62;30.17;102862.25;5242811;28;20037;-68
2022/03/24 10:19:14;;;;;;;27.02;23.60;;;;;;;14.58;30.38;102858.34;5249983;28;20128;-68
2022/03/24 10:21:48;;;;;;;29.52;25.50;;;;;;;14.54;30.54;102852.44;5262313;28;20036;-68
2022/03/24 10:24:21;;;;;;;40.78;36.50;;;;;;;14.67;29.12;102851.13;5245300;28;20490;-69
2022/03/24 10:27:03;;;;;;;27.20;21.50;;;;;;;14.72;27.71;102844.75;5261222;28;20033;-69
2022/03/24 10:29:35;;;;;;;22.85;18.88;;;;;;;14.83;27.63;102854.00;5257468;28;20064;-68
2022/03/24 10:32:11;;;;;;;20.55;17.77;;;;;;;14.77;26.93;102850.34;5263769;28;20033;-68
2022/03/24 10:34:46;;;;;;;26.48;18.33;;;;;;;14.76;27.72;102838.34;5262572;28;20060;-68
2022/03/24 10:37:19;;;;;;;22.80;20.38;;;;;;;14.93;28.46;102848.50;5261971;28;20027;-68
2022/03/24 10:39:56;;;;;;;22.48;19.52;;;;;;;15.10;27.63;102849.16;5257230;28;20028;-68
2022/03/24 10:42:30;;;;;;;24.50;19.20;;;;;;;15.18;26.78;102851.41;5243246;28;20018;-69
2022/03/24 10:45:18;;;;;;;20.27;18.13;;;;;;;15.19;26.59;102847.53;5258706;28;20400;-68
2022/03/24 10:48:00;;;;;;;20.55;17.23;;;;;;;15.17;26.72;102846.94;5241543;28;20360;-68
2022/03/24 10:50:41;;;;;;;20.30;18.17;;;;;;;15.16;26.74;102848.06;5241994;28;20060;-69
2022/03/24 10:53:15;;;;;;;21.02;18.85;;;;;;;15.28;26.92;102845.03;5254297;28;20108;-68
2022/03/24 10:56:00;;;;;;;22.13;19.73;;;;;;;15.27;27.11;102845.31;5248553;28;20431;-68
2022/03/24 10:58:38;;;;;;;22.17;19.98;;;;;;;15.18;27.92;102837.44;5252833;28;20077;-68
2022/03/24 11:01:11;;;;;;;25.83;19.20;;;;;;;15.25;26.50;102841.97;5245672;28;20037;-69
2022/03/24 11:03:44;;;;;;;22.55;19.23;;;;;;;15.27;26.37;102834.16;5248383;28;20033;-68
2022/03/24 11:06:17;;;;;;;26.63;19.98;;;;;;;15.46;27.95;102843.72;5241998;28;20034;-68
2022/03/24 11:08:56;;;;;;;22.10;19.60;;;;;;;15.52;27.90;102842.63;5246705;28;20373;-68
2022/03/24 11:11:29;;;;;;;22.10;19.27;;;;;;;15.53;28.10;102835.91;5259178;28;20028;-68
2022/03/24 11:14:03;;;;;;;22.35;17.98;;;;;;;15.79;28.13;102839.63;5256849;28;20052;-68
2022/03/24 11:16:35;;;;;;;23.30;17.58;;;;;;;15.93;28.08;102834.34;5256637;28;20029;-68
2022/03/24 11:19:15;;;;;;;21.35;18.67;;;;;;;15.95;26.79;102843.31;5261447;28;20531;-68
2022/03/24 11:21:58;;;;;;;51.00;46.33;;;;;;;15.82;27.93;102839.09;5240887;28;20434;-69
2022/03/24 11:24:30;;;;;;;35.08;26.85;;;;;;;15.85;27.40;102837.72;5241954;28;20041;-69
2022/03/24 11:27:02;;;;;;;23.65;21.02;;;;;;;15.86;26.92;102830.97;5256013;28;20032;-68
2022/03/24 11:29:35;;;;;;;23.83;20.60;;;;;;;16.20;27.40;102831.28;5261546;28;20392;-69
2022/03/24 11:32:08;;;;;;;22.00;19.17;;;;;;;16.15;26.91;102839.69;5262238;28;20025;-69
2022/03/24 11:34:41;;;;;;;21.10;18.75;;;;;;;16.22;27.40;102825.41;5252357;28;20037;-68
2022/03/24 11:37:12;;;;;;;22.05;19.75;;;;;;;16.19;27.21;102826.81;5249840;28;20025;-68
2022/03/24 11:40:00;;;;;;;23.30;20.60;;;;;;;16.28;27.41;102825.16;5246434;28;20401;-70
2022/03/24 11:42:35;;;;;;;30.42;21.83;;;;;;;16.24;27.05;102823.19;5244422;28;20381;-67
2022/03/24 11:45:12;;;;;;;23.85;20.95;;;;;;;16.39;28.46;102825.97;5241140;28;20591;-67
2022/03/24 11:48:02;;;;;;;36.20;27.77;;;;;;;16.42;27.51;102819.81;5241297;28;20033;-67
2022/03/24 11:50:41;;;;;;;32.90;27.83;;;;;;;16.48;27.51;102818.66;5252792;28;20040;-67
2022/03/24 11:53:24;;;;;;;31.02;22.73;;;;;;;16.59;27.08;102813.91;5255412;28;20477;-68
2022/03/24 11:55:58;;;;;;;35.70;28.67;;;;;;;16.67;27.24;102812.50;5248128;28;20399;-68
2022/03/24 11:58:34;;;;;;;49.72;43.95;;;;;;;16.47;26.47;102813.38;5240029;28;20088;-68
2022/03/24 12:01:17;;;;;;;28.45;24.27;;;;;;;16.56;26.98;102803.25;5240938;28;20026;-67
2022/03/24 12:03:49;;;;;;;24.38;20.70;;;;;;;16.79;27.07;102801.81;5240230;28;20063;-68
2022/03/24 12:06:48;;;;;;;27.95;22.08;;;;;;;16.87;27.55;102804.06;5240598;28;20053;-68
2022/03/24 12:09:26;;;;;;;25.55;22.73;;;;;;;17.05;27.61;102796.13;5241132;28;20030;-68
2022/03/24 12:12:03;;;;;;;26.58;22.75;;;;;;;17.09;27.02;102803.69;5256529;28;20040;-68
2022/03/24 12:14:36;;;;;;;27.65;23.40;;;;;;;16.97;27.14;102786.34;5261564;28;20105;-68
2022/03/24 12:17:26;;;;;;;29.63;23.25;;;;;;;17.11;26.32;102789.41;5249552;28;20495;-68
2022/03/24 12:19:59;;;;;;;26.85;23.95;;;;;;;17.05;26.06;102784.91;5239723;28;20449;-67
2022/03/24 12:22:35;;;;;;;29.75;24.73;;;;;;;17.03;26.42;102784.38;5240731;28;20021;-67
2022/03/24 12:25:08;;;;;;;32.45;27.10;;;;;;;16.98;26.62;102782.44;5240847;28;20074;-67
2022/03/24 12:28:24;;;;;;;29.05;24.13;;;;;;;17.21;27.36;102780.09;5250897;28;20055;-69
2022/03/24 12:31:21;;;;;;;29.00;25.85;;;;;;;17.50;26.91;102780.22;5222623;28;20049;-67
2022/03/24 12:33:55;;;;;;;29.38;24.25;;;;;;;17.55;26.51;102786.63;5248112;28;20037;-67
2022/03/24 12:36:40;;;;;;;30.27;24.67;;;;;;;17.58;25.57;102773.97;5262321;28;20396;-68
2022/03/24 12:39:11;;;;;;;28.40;24.92;;;;;;;17.70;25.73;102768.84;5262905;28;20407;-67
2022/03/24 12:42:03;;;;;;;27.15;24.25;;;;;;;17.73;25.49;102770.22;5262252;28;20036;-69
2022/03/24 12:44:56;;;;;;;27.60;24.58;;;;;;;17.67;25.92;102772.25;5242480;28;20088;-68
2022/03/24 12:47:33;;;;;;;26.75;23.83;;;;;;;17.58;25.51;102769.19;5250983;28;20079;-69
2022/03/24 12:50:20;;;;;;;27.63;23.10;;;;;;;17.63;24.86;102765.53;5246122;28;20496;-70
2022/03/24 12:52:55;;;;;;;30.48;23.88;;;;;;;17.92;24.58;102759.16;5253800;28;20029;-69
2022/03/24 12:55:44;;;;;;;24.52;21.95;;;;;;;17.97;24.18;102764.72;5264906;28;20024;-69
2022/03/24 12:58:18;;;;;;;28.35;23.50;;;;;;;18.08;24.49;102760.72;5258691;28;20067;-70
2022/03/24 13:00:50;;;;;;;32.10;22.33;;;;;;;18.17;23.99;102758.94;5244173;28;20021;-69
2022/03/24 13:03:22;;;;;;;28.13;21.63;;;;;;;18.26;24.22;102759.16;5258363;28;20429;-71
2022/03/24 13:05:54;;;;;;;63.42;57.03;;;;;;;18.40;23.44;102753.66;5244594;28;20064;-70
2022/03/24 13:08:26;;;;;;;38.83;29.17;;;;;;;18.32;23.60;102751.50;5243921;28;20095;-70
2022/03/24 13:11:01;;;;;;;26.40;23.05;;;;;;;18.36;23.77;102745.00;5244324;28;20025;-69
2022/03/24 13:13:32;;;;;;;27.08;23.50;;;;;;;18.42;23.56;102740.16;5244552;28;20028;-71
2022/03/24 13:16:04;;;;;;;28.77;22.33;;;;;;;18.35;23.23;102748.09;5256907;28;20388;-70
2022/03/24 13:18:36;;;;;;;22.42;20.02;;;;;;;18.50;22.42;102745.13;5259496;28;20049;-68
2022/03/24 13:21:08;;;;;;;25.25;19.55;;;;;;;18.58;21.94;102747.28;5243822;28;20025;-68
2022/03/24 13:23:39;;;;;;;25.25;21.80;;;;;;;18.60;22.19;102745.00;5243793;28;20416;-67
2022/03/24 13:26:11;;;;;;;22.90;20.40;;;;;;;18.79;22.69;102747.06;5244208;28;20022;-70
2022/03/24 13:28:42;;;;;;;29.23;24.10;;;;;;;18.79;22.17;102749.88;5263371;28;20032;-70
2022/03/24 13:31:13;;;;;;;23.20;20.60;;;;;;;18.78;21.93;102749.06;5264774;28;20480;-69
2022/03/24 13:33:52;;;;;;;26.27;22.65;;;;;;;18.79;23.60;102747.06;5263650;28;20036;-70
2022/03/24 13:36:24;;;;;;;26.80;22.48;;;;;;;18.79;22.80;102741.44;5245079;28;20049;-69
2022/03/24 13:38:55;;;;;;;27.55;22.33;;;;;;;18.72;23.25;102732.53;5246662;28;20036;-69
2022/03/24 13:41:27;;;;;;;26.02;22.88;;;;;;;19.15;22.48;102735.38;5251596;28;20028;-69
2022/03/24 13:43:58;;;;;;;27.20;21.45;;;;;;;19.07;23.29;102732.09;5255042;28;20020;-67
2022/03/24 13:46:30;;;;;;;26.35;23.42;;;;;;;19.21;22.80;102734.16;5251149;28;20028;-67
2022/03/24 13:49:02;;;;;;;27.67;23.70;;;;;;;19.30;23.32;102735.16;5247840;28;20487;-67
2022/03/24 13:51:33;;;;;;;28.48;22.15;;;;;;;19.46;22.65;102722.53;5258154;28;20116;-69
2022/03/24 13:54:19;;;;;;;26.75;23.92;;;;;;;19.48;22.57;102725.03;5248729;28;20030;-67
2022/03/24 13:56:51;;;;;;;29.35;24.80;;;;;;;19.21;22.71;102725.72;5243991;28;20106;-69
2022/03/24 13:59:27;;;;;;;28.17;24.52;;;;;;;19.32;22.52;102724.44;5247808;28;20021;-69
2022/03/24 14:01:59;;;;;;;27.63;24.63;;;;;;;19.35;22.64;102723.81;5250402;28;20108;-69
2022/03/24 14:04:31;;;;;;;29.38;25.88;;;;;;;19.47;22.41;102724.19;5252995;28;20108;-69
2022/03/24 14:07:06;;;;;;;26.27;23.50;;;;;;;19.50;22.69;102715.13;5263042;28;20029;-69
2022/03/24 14:09:52;;;;;;;30.55;25.23;;;;;;;19.50;23.38;102717.94;5258149;28;20025;-70
2022/03/24 14:12:25;;;;;;;27.90;24.58;;;;;;;19.50;23.24;102709.50;5241524;28;20033;-69
2022/03/24 14:14:56;;;;;;;45.38;38.13;;;;;;;19.59;22.73;102700.41;5254356;28;20550;-68
2022/03/24 14:17:27;;;;;;;27.92;24.23;;;;;;;19.61;22.85;102701.78;5245553;28;20025;-69
2022/03/24 14:19:59;;;;;;;28.08;24.75;;;;;;;19.27;22.55;102705.66;5242471;28;20037;-68
2022/03/24 14:22:45;;;;;;;27.70;24.02;;;;;;;19.58;23.54;102701.53;5242275;28;20032;-69
2022/03/24 14:25:17;;;;;;;26.45;23.65;;;;;;;19.59;23.81;102703.22;5241857;28;20037;-70
2022/03/24 14:27:50;;;;;;;27.73;24.00;;;;;;;19.66;22.76;102704.50;5251049;28;20113;-70
2022/03/24 14:30:29;;;;;;;25.35;22.50;;;;;;;19.62;23.60;102694.16;5242358;28;20044;-69
2022/03/24 14:33:00;;;;;;;30.23;24.65;;;;;;;19.65;23.04;102697.19;5243149;28;20487;-68
2022/03/24 14:35:32;;;;;;;44.10;39.05;;;;;;;19.78;23.77;102701.22;5252328;28;20025;-69
2022/03/24 14:38:08;;;;;;;36.88;26.98;;;;;;;19.87;22.98;102698.56;5249484;28;20029;-68
2022/03/24 14:40:42;;;;;;;31.77;24.40;;;;;;;19.76;22.36;102697.88;5243382;28;20036;-68
2022/03/24 14:43:16;;;;;;;29.73;23.60;;;;;;;19.48;22.74;102689.31;5244925;28;20059;-68
2022/03/24 14:45:49;;;;;;;28.88;23.40;;;;;;;19.57;22.12;102692.25;5248509;28;20032;-68
2022/03/24 14:48:20;;;;;;;31.17;24.95;;;;;;;19.46;22.86;102688.78;5253308;28;20021;-68
2022/03/24 14:50:53;;;;;;;29.27;22.50;;;;;;;19.55;22.46;102686.91;5255329;28;20022;-69
2022/03/24 14:53:26;;;;;;;30.33;23.73;;;;;;;19.96;25.34;102682.59;5240580;28;20021;-69
2022/03/24 14:55:57;;;;;;;24.88;22.13;;;;;;;19.95;24.03;102681.78;5241845;28;20049;-69
2022/03/24 14:58:29;;;;;;;28.02;24.38;;;;;;;19.84;22.32;102682.25;5245153;28;20042;-70
2022/03/24 15:01:01;;;;;;;34.85;29.05;;;;;;;19.74;23.22;102681.31;5248952;28;20025;-70
2022/03/24 15:03:33;;;;;;;29.90;24.92;;;;;;;19.87;24.04;102682.50;5256239;28;20021;-70
2022/03/24 15:06:04;;;;;;;27.45;24.08;;;;;;;19.71;23.16;102672.63;5251419;28;20056;-69
2022/03/24 15:08:35;;;;;;;31.48;25.10;;;;;;;19.83;23.64;102670.16;5245947;28;20040;-69
2022/03/24 15:11:08;;;;;;;27.48;23.83;;;;;;;19.51;23.28;102677.44;5256398;28;20035;-69
2022/03/24 15:13:39;;;;;;;36.05;32.15;;;;;;;19.49;23.34;102668.47;5248109;28;20040;-72
2022/03/24 15:16:10;;;;;;;34.25;29.35;;;;;;;19.48;23.15;102663.13;5244968;28;20025;-71
2022/03/24 15:18:44;;;;;;;40.03;29.08;;;;;;;19.69;23.13;102658.03;5244188;28;20120;-72
2022/03/24 15:21:15;;;;;;;25.45;22.00;;;;;;;19.57;23.72;102655.66;5241275;28;20029;-71
2022/03/24 15:23:46;;;;;;;27.67;20.98;;;;;;;19.78;23.89;102664.63;5240974;28;20037;-72
2022/03/24 15:26:18;;;;;;;29.48;21.65;;;;;;;19.65;23.30;102660.59;5243482;28;20032;-71
2022/03/24 15:28:49;;;;;;;25.38;19.83;;;;;;;19.73;23.25;102659.91;5247560;28;20026;-71
2022/03/24 15:31:21;;;;;;;27.15;21.10;;;;;;;19.67;23.62;102657.50;5250858;28;20464;-70
2022/03/24 15:33:52;;;;;;;25.48;19.40;;;;;;;19.84;23.63;102657.78;5241472;28;20029;-70
2022/03/24 15:36:25;;;;;;;27.08;20.13;;;;;;;19.76;23.36;102656.50;5244665;28;20032;-71
2022/03/24 15:38:56;;;;;;;27.85;20.17;;;;;;;19.51;23.75;102657.75;5240935;28;20033;-71
2022/03/24 15:41:32;;;;;;;24.67;20.42;;;;;;;19.59;23.81;102658.19;5241287;28;20021;-69
2022/03/24 15:44:04;;;;;;;25.88;20.80;;;;;;;19.61;23.80;102650.25;5240467;28;20052;-70
2022/03/24 15:46:36;;;;;;;27.83;19.98;;;;;;;19.62;24.25;102654.75;5242339;28;20037;-69
2022/03/24 15:49:07;;;;;;;30.65;21.15;;;;;;;19.47;23.49;102662.31;5240190;28;20144;-69
2022/03/24 15:51:40;;;;;;;28.25;20.63;;;;;;;19.53;24.63;102652.66;5245523;28;20127;-69
2022/03/24 15:54:12;;;;;;;25.88;19.45;;;;;;;19.51;25.19;102663.38;5246617;28;20100;-68
2022/03/24 15:56:43;;;;;;;30.38;21.42;;;;;;;19.45;25.07;102661.75;5251932;28;20049;-70
2022/03/24 15:59:15;;;;;;;28.15;21.38;;;;;;;19.45;25.16;102658.13;5259502;28;20033;-69
2022/03/24 16:01:46;;;;;;;28.70;23.52;;;;;;;19.26;24.30;102666.59;5259746;28;20453;-72
2022/03/24 16:04:17;;;;;;;26.70;21.08;;;;;;;19.41;24.87;102663.53;5253723;28;22053;-70
2022/03/24 16:06:49;;;;;;;28.05;21.70;;;;;;;19.23;25.06;102658.78;5244091;28;20029;-72
2022/03/24 16:09:20;;;;;;;30.55;22.38;;;;;;;19.31;25.85;102658.06;5248099;28;20045;-72
2022/03/24 16:11:52;;;;;;;30.60;21.67;;;;;;;19.24;26.28;102657.63;5240202;28;20378;-73
2022/03/24 16:14:23;;;;;;;26.88;21.20;;;;;;;19.32;26.18;102656.91;5240898;28;20021;-71
2022/03/24 16:16:55;;;;;;;26.77;20.13;;;;;;;19.22;26.07;102665.50;5240254;28;20041;-70
2022/03/24 16:19:26;;;;;;;24.42;19.60;;;;;;;19.15;27.36;102659.44;5242181;28;20029;-70
2022/03/24 16:21:58;;;;;;;24.58;19.00;;;;;;;19.32;26.62;102654.94;5249422;28;20083;-70
2022/03/24 16:24:29;;;;;;;28.00;19.88;;;;;;;19.20;26.64;102653.72;5246038;28;20056;-70
2022/03/24 16:27:01;;;;;;;28.42;21.17;;;;;;;19.13;27.92;102656.94;5249363;28;20048;-71
2022/03/24 16:29:32;;;;;;;30.83;21.25;;;;;;;18.99;27.06;102654.03;5247220;28;20460;-71
2022/03/24 16:32:04;;;;;;;32.30;22.38;;;;;;;18.89;27.16;102657.00;5247263;28;20032;-72
2022/03/24 16:34:36;;;;;;;26.10;21.20;;;;;;;18.91;27.28;102651.91;5261228;28;20037;-70
2022/03/24 16:37:08;;;;;;;27.02;20.38;;;;;;;18.69;27.38;102658.94;5254162;28;20037;-70
2022/03/24 16:39:41;;;;;;;30.08;21.95;;;;;;;18.65;27.58;102657.84;5252992;28;20034;-72
2022/03/24 16:42:12;;;;;;;30.20;20.65;;;;;;;18.66;27.94;102659.53;5262108;28;20083;-73
2022/03/24 16:44:44;;;;;;;28.40;20.52;;;;;;;18.51;28.31;102659.72;5248396;28;20457;-73
2022/03/24 16:47:15;;;;;;;29.60;20.48;;;;;;;18.43;28.47;102658.41;5244283;28;20018;-70
2022/03/24 16:49:46;;;;;;;21.85;19.38;;;;;;;18.47;28.72;102658.66;5244210;28;20103;-70
2022/03/24 16:52:18;;;;;;;24.10;19.85;;;;;;;18.29;29.00;102662.25;5243328;28;20088;-71
2022/03/24 16:54:50;;;;;;;25.75;19.27;;;;;;;18.37;29.39;102661.56;5244281;28;20040;-71
2022/03/24 16:57:21;;;;;;;30.40;19.98;;;;;;;18.28;29.04;102661.41;5250874;28;20092;-71
2022/03/24 16:59:52;;;;;;;27.02;19.05;;;;;;;18.15;29.30;102662.09;5243951;28;20034;-70
2022/03/24 17:02:23;;;;;;;28.90;19.88;;;;;;;18.11;29.57;102659.06;5243843;28;20397;-70
2022/03/24 17:04:55;;;;;;;25.25;18.80;;;;;;;18.04;30.20;102662.19;5247894;28;20514;-70
2022/03/24 17:07:27;;;;;;;29.30;19.63;;;;;;;18.02;29.71;102661.69;5256333;28;20057;-70
2022/03/24 17:09:59;;;;;;;22.98;19.77;;;;;;;17.96;30.49;102656.41;5255230;28;20026;-70
2022/03/24 17:12:30;;;;;;;30.50;20.08;;;;;;;17.82;30.37;102661.88;5251076;28;20048;-71
2022/03/24 17:15:03;;;;;;;27.90;20.08;;;;;;;17.90;30.57;102661.25;5246957;28;20072;-72
2022/03/24 17:17:34;;;;;;;26.48;19.92;;;;;;;17.83;31.72;102657.09;5253239;28;20057;-70
2022/03/24 17:20:07;;;;;;;28.20;19.17;;;;;;;17.78;30.58;102666.38;5244063;28;20075;-71
2022/03/24 17:22:39;;;;;;;27.13;18.70;;;;;;;17.72;31.84;102664.75;5246434;28;20032;-69
2022/03/24 17:25:17;;;;;;;22.63;19.30;;;;;;;17.69;31.59;102665.31;5256460;28;20476;-72
2022/03/24 17:27:51;;;;;;;24.50;17.73;;;;;;;17.70;31.23;102665.03;5260108;28;20433;-69
